createdAt,value
2019-04-27T00:01:49.663Z,99745.80
2019-04-27T00:04:36.045Z,99734.57
2019-04-27T00:10:03.472Z,99736.72
2019-04-27T00:12:33.104Z,99724.63
2019-04-27T00:15:03.341Z,99724.63
2019-04-27T00:17:49.845Z,99718.97
2019-04-27T00:20:36.244Z,99719.06
2019-04-27T00:23:23.632Z,99719.06
2019-04-27T00:28:39.919Z,99712.88
2019-04-27T00:31:26.322Z,99705.64
2019-04-27T00:33:54.081Z,99708.66
2019-04-27T00:39:35.215Z,99705.28
2019-04-27T00:45:05.231Z,99706.84
2019-04-27T00:47:34.893Z,99706.84
2019-04-27T00:50:20.820Z,99705.29
2019-04-27T00:52:50.628Z,99706.97
2019-04-27T00:55:37.350Z,99705.16
2019-04-27T00:58:23.738Z,99698.16
2019-04-27T01:01:10.437Z,99702.26
2019-04-27T01:03:56.876Z,99693.09
2019-04-27T01:11:47.165Z,99688.51
2019-04-27T01:14:34.284Z,99688.51
2019-04-27T01:17:02.866Z,99684.98
2019-04-27T01:19:30.751Z,99686.67
2019-04-27T01:22:18.782Z,99677.12
2019-04-27T01:24:46.445Z,99677.12
2019-04-27T01:27:33.148Z,99662.74
2019-04-27T01:30:19.519Z,99664.19
2019-04-27T01:33:06.218Z,99664.19
2019-04-27T01:35:34.029Z,99661.17
2019-04-27T01:38:01.791Z,99652.02
2019-04-27T01:40:29.566Z,99651.16
2019-04-27T01:43:18.670Z,99647.28
2019-04-27T01:45:46.678Z,99647.28
2019-04-27T01:48:33.049Z,99652.50
2019-04-27T01:51:21.006Z,99639.58
2019-04-27T01:53:49.250Z,99639.58
2019-04-27T01:56:19.469Z,99640.80
2019-04-27T01:58:49.264Z,99640.80
2019-04-27T02:01:35.560Z,99638.88
2019-04-27T02:04:21.993Z,99637.30
2019-04-27T02:09:40.093Z,99637.92
2019-04-27T02:12:26.475Z,99629.10
2019-04-27T02:14:54.249Z,99629.10
2019-04-27T02:17:21.821Z,99632.27
2019-04-27T02:20:09.715Z,99624.05
2019-04-27T02:22:38.459Z,99624.05
2019-04-27T02:25:08.932Z,99627.05
2019-04-27T02:30:32.906Z,99616.67
2019-04-27T02:33:20.317Z,99616.67
2019-04-27T02:38:36.697Z,99616.67
2019-04-27T02:41:23.131Z,99608.09
2019-04-27T02:44:09.856Z,99608.09
2019-04-27T02:46:39.448Z,99613.31
2019-04-27T02:49:25.965Z,99607.49
2019-04-27T02:55:00.076Z,99607.49
2019-04-27T02:57:30.026Z,99607.49
2019-04-27T02:59:57.224Z,99595.30
2019-04-27T03:02:43.863Z,99593.14
2019-04-27T03:05:13.135Z,99593.14
2019-04-27T03:08:00.033Z,99588.30
2019-04-27T03:13:23.537Z,99591.45
2019-04-27T03:19:18.871Z,99590.85
2019-04-27T03:22:03.691Z,99590.85
2019-04-27T03:25:04.204Z,99581.66
2019-04-27T03:33:02.977Z,99575.50
2019-04-27T03:35:35.040Z,99570.30
2019-04-27T03:38:19.776Z,99571.77
2019-04-27T03:40:47.366Z,99571.77
2019-04-27T03:43:34.054Z,99571.38
2019-04-27T03:46:02.121Z,99564.64
2019-04-27T03:48:29.919Z,99563.20
2019-04-27T03:51:16.565Z,99563.20
2019-04-27T03:54:03.822Z,99562.23
2019-04-27T03:56:50.882Z,99560.05
2019-04-27T03:59:40.537Z,99558.00
2019-04-27T04:02:10.159Z,99558.47
2019-04-27T04:04:37.095Z,99558.47
2019-04-27T04:09:51.148Z,99553.89
2019-04-27T04:12:39.791Z,99543.87
2019-04-27T04:18:00.433Z,99543.05
2019-04-27T04:20:30.380Z,99543.05
2019-04-27T04:23:02.782Z,99537.01
2019-04-27T04:25:45.634Z,99535.30
2019-04-27T04:28:32.054Z,99529.62
2019-04-27T04:31:00.454Z,99529.62
2019-04-27T04:33:49.258Z,99539.49
2019-04-27T04:36:17.103Z,99539.49
2019-04-27T04:39:03.548Z,99539.97
2019-04-27T04:41:50.978Z,99539.09
2019-04-27T04:47:30.801Z,99533.85
2019-04-27T04:50:10.697Z,99525.11
2019-04-27T04:52:29.574Z,99519.73
2019-04-27T04:55:20.117Z,99525.84
2019-04-27T04:57:49.109Z,99525.84
2019-04-27T05:00:34.720Z,99520.78
2019-04-27T05:03:02.470Z,99521.31
2019-04-27T05:05:50.100Z,99521.31
2019-04-27T05:08:36.918Z,99514.80
2019-04-27T05:11:23.374Z,99514.80
2019-04-27T05:13:51.084Z,99525.09
2019-04-27T05:16:39.067Z,99519.16
2019-04-27T05:22:12.630Z,99511.23
2019-04-27T05:24:59.311Z,99515.06
2019-04-27T05:30:19.660Z,99504.56
2019-04-27T05:32:49.548Z,99504.56
2019-04-27T05:35:19.330Z,99501.26
2019-04-27T05:37:49.079Z,99497.69
2019-04-27T05:40:35.245Z,99500.98
2019-04-27T05:45:57.722Z,99511.50
2019-04-27T05:48:27.754Z,99505.37
2019-04-27T05:51:14.212Z,99504.22
2019-04-27T05:53:46.298Z,99502.75
2019-04-27T05:56:13.943Z,99502.75
2019-04-27T05:58:41.640Z,99501.41
2019-04-27T06:01:11.348Z,99494.42
2019-04-27T06:03:58.861Z,99501.25
2019-04-27T06:06:26.764Z,99495.29
2019-04-27T06:09:13.223Z,99501.14
2019-04-27T06:11:40.824Z,99498.95
2019-04-27T06:14:29.060Z,99498.95
2019-04-27T06:17:15.281Z,99489.77
2019-04-27T06:20:01.739Z,99489.77
2019-04-27T06:22:29.538Z,99486.11
2019-04-27T06:25:21.158Z,99485.45
2019-04-27T06:30:53.998Z,99474.73
2019-04-27T06:33:29.582Z,99477.58
2019-04-27T06:36:10.044Z,99469.53
2019-04-27T06:38:39.384Z,99469.53
2019-04-27T06:41:25.886Z,99467.98
2019-04-27T06:43:53.473Z,99462.88
2019-04-27T06:46:40.526Z,99460.86
2019-04-27T06:52:02.345Z,99457.50
2019-04-27T06:57:21.560Z,99458.91
2019-04-27T06:59:50.696Z,99456.06
2019-04-27T07:02:49.404Z,99454.73
2019-04-27T07:07:59.241Z,99456.55
2019-04-27T07:13:19.574Z,99462.75
2019-04-27T07:16:06.042Z,99462.37
2019-04-27T07:18:52.437Z,99462.37
2019-04-27T07:21:24.739Z,99456.34
2019-04-27T07:24:08.974Z,99457.40
2019-04-27T07:26:36.688Z,99457.40
2019-04-27T07:29:04.627Z,99465.55
2019-04-27T07:31:46.182Z,99465.79
2019-04-27T07:34:01.749Z,99467.32
2019-04-27T07:36:36.691Z,99457.88
2019-04-27T07:39:05.066Z,99471.03
2019-04-27T07:41:32.937Z,99471.48
2019-04-27T07:44:15.122Z,99464.46
2019-04-27T07:46:42.782Z,99466.52
2019-04-27T07:49:10.768Z,99459.50
2019-04-27T07:51:39.339Z,99460.44
2019-04-27T07:54:08.766Z,99460.44
2019-04-27T07:56:39.322Z,99465.55
2019-04-27T07:59:06.912Z,99462.03
2019-04-27T08:01:34.577Z,99453.44
2019-04-27T08:04:02.433Z,99463.89
2019-04-27T08:06:33.119Z,99458.98
2019-04-27T08:09:00.844Z,99456.60
2019-04-27T08:11:29.163Z,99460.52
2019-04-27T08:13:59.279Z,99463.59
2019-04-27T08:16:32.838Z,99461.56
2019-04-27T08:19:03.439Z,99465.91
2019-04-27T08:21:43.380Z,99455.38
2019-04-27T08:24:06.285Z,99466.55
2019-04-27T08:26:43.392Z,99466.55
2019-04-27T08:29:29.635Z,99463.80
2019-04-27T08:32:04.139Z,99466.97
2019-04-27T08:34:35.589Z,99470.11
2019-04-27T08:37:06.034Z,99462.75
2019-04-27T08:39:33.632Z,99466.41
2019-04-27T08:42:01.329Z,99466.41
2019-04-27T08:44:32.005Z,99461.07
2019-04-27T08:46:59.719Z,99464.08
2019-04-27T08:49:29.259Z,99458.27
2019-04-27T08:52:01.349Z,99458.27
2019-04-27T08:54:26.554Z,99452.66
2019-04-27T08:56:56.930Z,99449.83
2019-04-27T08:59:29.551Z,99449.83
2019-04-27T09:01:58.724Z,99444.57
2019-04-27T09:04:28.799Z,99449.31
2019-04-27T09:07:03.827Z,99440.62
2019-04-27T09:09:42.616Z,99441.61
2019-04-27T09:12:29.399Z,99442.59
2019-04-27T09:15:02.014Z,99442.52
2019-04-27T09:17:36.175Z,99442.52
2019-04-27T09:20:22.906Z,99438.38
2019-04-27T09:22:50.643Z,99428.27
2019-04-27T09:25:19.303Z,99434.00
2019-04-27T09:27:47.083Z,99434.00
2019-04-27T09:30:14.787Z,99437.87
2019-04-27T09:32:42.658Z,99427.70
2019-04-27T09:35:10.254Z,99426.20
2019-04-27T09:37:38.215Z,99422.92
2019-04-27T09:40:06.337Z,99424.17
2019-04-27T09:42:38.155Z,99424.17
2019-04-27T09:45:06.552Z,99415.94
2019-04-27T09:47:39.049Z,99413.31
2019-04-27T09:50:06.202Z,99404.39
2019-04-27T09:52:45.921Z,99405.70
2019-04-27T09:55:13.581Z,99411.77
2019-04-27T09:57:41.195Z,99405.30
2019-04-27T10:00:11.159Z,99401.85
2019-04-27T10:02:39.053Z,99405.52
2019-04-27T10:05:07.047Z,99400.14
2019-04-27T10:07:35.842Z,99397.73
2019-04-27T10:10:06.428Z,99397.09
2019-04-27T10:12:37.291Z,99399.58
2019-04-27T10:15:07.631Z,99392.70
2019-04-27T10:17:35.457Z,99392.50
2019-04-27T10:20:03.160Z,99383.63
2019-04-27T10:22:41.033Z,99390.75
2019-04-27T10:25:03.174Z,99390.75
2019-04-27T10:27:30.844Z,99390.27
2019-04-27T10:29:58.642Z,99380.58
2019-04-27T10:32:26.515Z,99371.96
2019-04-27T10:34:54.265Z,99371.96
2019-04-27T10:37:21.914Z,99369.73
2019-04-27T10:39:49.661Z,99369.73
2019-04-27T10:42:17.338Z,99368.63
2019-04-27T10:44:46.165Z,99369.77
2019-04-27T10:47:15.691Z,99366.95
2019-04-27T10:49:43.227Z,99368.77
2019-04-27T10:52:11.071Z,99363.73
2019-04-27T10:54:42.556Z,99374.17
2019-04-27T10:57:16.188Z,99369.09
2019-04-27T10:59:40.777Z,99357.82
2019-04-27T11:02:08.313Z,99356.54
2019-04-27T11:05:00.848Z,99363.37
2019-04-27T11:07:33.180Z,99353.45
2019-04-27T11:10:00.839Z,99387.34
2019-04-27T11:12:28.463Z,99420.17
2019-04-27T11:14:56.474Z,99436.82
2019-04-27T11:17:24.194Z,99436.82
2019-04-27T11:19:51.866Z,99431.94
2019-04-27T11:22:19.690Z,99436.22
2019-04-27T11:24:48.982Z,99451.87
2019-04-27T11:27:16.534Z,99452.67
2019-04-27T11:29:51.087Z,99452.67
2019-04-27T11:32:18.784Z,99463.67
2019-04-27T11:35:17.378Z,99456.09
2019-04-27T11:37:45.621Z,99456.09
2019-04-27T11:40:13.292Z,99451.16
2019-04-27T11:42:40.983Z,99449.63
2019-04-27T11:45:08.996Z,99458.39
2019-04-27T11:47:36.939Z,99458.39
2019-04-27T11:50:08.188Z,99455.13
2019-04-27T11:52:36.032Z,99455.13
2019-04-27T11:55:05.719Z,99456.23
2019-04-27T11:57:33.416Z,99451.98
2019-04-27T12:00:01.051Z,99463.55
2019-04-27T12:02:28.982Z,99463.55
2019-04-27T12:04:56.631Z,99467.13
2019-04-27T12:07:24.173Z,99457.75
2019-04-27T12:09:51.813Z,99465.19
2019-04-27T12:12:21.700Z,99470.39
2019-04-27T12:14:48.902Z,99462.23
2019-04-27T12:17:16.588Z,99469.33
2019-04-27T12:19:44.211Z,99469.33
2019-04-27T12:22:16.906Z,99473.75
2019-04-27T12:24:45.739Z,99477.97
2019-04-27T12:27:38.202Z,99474.73
2019-04-27T12:30:40.153Z,99481.73
2019-04-27T12:33:12.235Z,99493.91
2019-04-27T12:35:56.891Z,99493.91
2019-04-27T12:38:17.111Z,99491.30
2019-04-27T12:40:46.484Z,99488.99
2019-04-27T12:43:14.220Z,99495.05
2019-04-27T12:45:43.614Z,99505.81
2019-04-27T12:48:11.105Z,99514.40
2019-04-27T12:50:38.994Z,99520.97
2019-04-27T12:53:09.107Z,99524.93
2019-04-27T12:55:47.396Z,99522.31
2019-04-27T12:58:23.163Z,99522.31
2019-04-27T13:00:53.594Z,99528.89
2019-04-27T13:03:21.046Z,99530.02
2019-04-27T13:05:50.084Z,99530.02
2019-04-27T13:08:19.879Z,99532.55
2019-04-27T13:10:47.119Z,99498.53
2019-04-27T13:13:17.705Z,99498.53
2019-04-27T13:15:45.892Z,99483.89
2019-04-27T13:18:16.724Z,99485.89
2019-04-27T13:20:44.632Z,99485.89
2019-04-27T13:23:15.073Z,99480.80
2019-04-27T13:25:42.789Z,99477.52
2019-04-27T13:28:12.956Z,99473.95
2019-04-27T13:30:40.672Z,99473.95
2019-04-27T13:33:08.211Z,99469.23
2019-04-27T13:35:36.128Z,99469.23
2019-04-27T13:38:06.146Z,99471.73
2019-04-27T13:40:35.801Z,99464.85
2019-04-27T13:43:27.842Z,99468.45
2019-04-27T13:46:08.152Z,99471.08
2019-04-27T13:48:56.206Z,99486.25
2019-04-27T13:51:41.244Z,99481.78
2019-04-27T13:54:18.682Z,99481.78
2019-04-27T13:56:38.510Z,99461.09
2019-04-27T13:59:10.751Z,99444.67
2019-04-27T14:01:38.482Z,99453.27
2019-04-27T14:04:07.368Z,99445.13
2019-04-27T14:06:36.419Z,99445.96
2019-04-27T14:09:05.498Z,99450.14
2019-04-27T14:11:33.172Z,99450.14
2019-04-27T14:14:01.091Z,99447.80
2019-04-27T14:16:29.132Z,99451.39
2019-04-27T14:18:56.836Z,99448.34
2019-04-27T14:21:24.448Z,99445.39
2019-04-27T14:23:53.465Z,99434.81
2019-04-27T14:26:21.046Z,99433.44
2019-04-27T14:28:49.966Z,99433.44
2019-04-27T14:31:18.902Z,99426.30
2019-04-27T14:33:48.248Z,99433.86
2019-04-27T14:36:15.821Z,99444.30
2019-04-27T14:38:43.763Z,99454.25
2019-04-27T14:41:11.738Z,99450.81
2019-04-27T14:43:39.316Z,99449.66
2019-04-27T14:46:08.133Z,99445.25
2019-04-27T14:48:35.792Z,99440.59
2019-04-27T14:51:04.481Z,99424.40
2019-04-27T14:53:32.393Z,99411.52
2019-04-27T14:56:02.737Z,99403.46
2019-04-27T14:59:05.721Z,99409.95
2019-04-27T15:01:08.211Z,99402.70
2019-04-27T15:03:36.869Z,99395.33
2019-04-27T15:06:08.921Z,99387.97
2019-04-27T15:08:38.291Z,99379.46
2019-04-27T15:11:17.335Z,99384.17
2019-04-27T15:13:43.114Z,99395.44
2019-04-27T15:16:09.028Z,99392.51
2019-04-27T15:18:43.602Z,99403.95
2019-04-27T15:21:12.407Z,99403.95
2019-04-27T15:23:41.398Z,99403.12
2019-04-27T15:26:15.402Z,99413.44
2019-04-27T15:28:44.804Z,99427.87
2019-04-27T15:31:31.669Z,99422.22
2019-04-27T15:34:35.586Z,99420.67
2019-04-27T15:37:28.159Z,99414.75
2019-04-27T15:40:20.046Z,99408.72
2019-04-27T15:42:59.506Z,99403.11
2019-04-27T15:45:28.616Z,99388.69
2019-04-27T15:48:03.542Z,99386.64
2019-04-27T15:50:32.331Z,99394.15
2019-04-27T15:53:06.948Z,99394.15
2019-04-27T15:55:36.921Z,99398.23
2019-04-27T15:58:02.599Z,99399.74
2019-04-27T16:00:38.279Z,99399.74
2019-04-27T16:03:05.832Z,99399.61
2019-04-27T16:05:35.994Z,99402.78
2019-04-27T16:08:14.867Z,99404.78
2019-04-27T16:10:40.951Z,99412.21
2019-04-27T16:13:15.119Z,99414.98
2019-04-27T16:15:40.334Z,99417.15
2019-04-27T16:18:12.555Z,99421.84
2019-04-27T16:20:41.577Z,99430.59
2019-04-27T16:23:19.150Z,99447.07
2019-04-27T16:26:04.995Z,99461.53
2019-04-27T16:28:28.224Z,99484.72
2019-04-27T16:31:05.289Z,99510.59
2019-04-27T16:33:33.228Z,99529.05
2019-04-27T16:36:07.106Z,99531.97
2019-04-27T16:38:36.187Z,99542.56
2019-04-27T16:41:08.062Z,99533.84
2019-04-27T16:43:36.183Z,99526.89
2019-04-27T16:46:04.661Z,99524.08
2019-04-27T16:48:34.556Z,99540.17
2019-04-27T16:51:02.504Z,99551.97
2019-04-27T16:53:48.929Z,99557.41
2019-04-27T16:56:20.854Z,99548.44
2019-04-27T16:58:56.278Z,99558.45
2019-04-27T17:01:40.071Z,99558.27
2019-04-27T17:07:00.213Z,99569.72
2019-04-27T17:09:50.549Z,99565.41
2019-04-27T17:15:21.133Z,99583.74
2019-04-27T17:18:09.305Z,99585.34
2019-04-27T17:20:38.295Z,99566.09
2019-04-27T17:23:06.457Z,99574.07
2019-04-27T17:25:39.684Z,99577.77
2019-04-27T17:28:08.755Z,99576.44
2019-04-27T17:30:41.536Z,99576.44
2019-04-27T17:33:22.190Z,99576.05
2019-04-27T17:35:49.865Z,99580.87
2019-04-27T17:38:36.276Z,99580.87
2019-04-27T17:44:12.788Z,99582.81
2019-04-27T17:46:42.746Z,99582.81
2019-04-27T17:49:28.783Z,99593.22
2019-04-27T17:57:26.175Z,99607.25
2019-04-27T18:00:10.361Z,99605.70
2019-04-27T18:02:42.257Z,99606.59
2019-04-27T18:08:08.288Z,99611.78
2019-04-27T18:13:42.163Z,99618.92
2019-04-27T18:22:37.416Z,99628.26
2019-04-27T18:25:10.471Z,99640.33
2019-04-27T18:28:14.736Z,99631.53
2019-04-27T18:30:45.354Z,99631.53
2019-04-27T18:36:11.700Z,99636.84
2019-04-27T18:41:49.245Z,99653.86
2019-04-27T18:44:11.624Z,99658.20
2019-04-27T18:47:02.346Z,99658.20
2019-04-27T18:50:10.153Z,99694.09
2019-04-27T18:52:47.771Z,99708.61
2019-04-27T18:55:16.794Z,99708.61
2019-04-27T18:57:45.951Z,99719.84
2019-04-27T19:00:15.546Z,99721.86
2019-04-27T19:02:43.156Z,99721.86
2019-04-27T19:05:10.736Z,99724.97
2019-04-27T19:07:58.271Z,99727.58
2019-04-27T19:16:22.378Z,99730.42
2019-04-27T19:18:50.249Z,99731.89
2019-04-27T19:21:19.946Z,99740.92
2019-04-27T19:23:50.240Z,99740.92
2019-04-27T19:26:38.143Z,99752.25
2019-04-27T19:32:14.170Z,99754.99
2019-04-27T19:35:00.531Z,99753.05
2019-04-27T19:37:48.559Z,99754.38
2019-04-27T19:43:40.175Z,99757.03
2019-04-27T19:46:10.289Z,99758.72
2019-04-27T19:48:56.432Z,99770.55
2019-04-27T19:51:25.783Z,99778.00
2019-04-27T19:54:12.238Z,99778.00
2019-04-27T19:56:39.947Z,99784.11
2019-04-27T19:59:28.059Z,99770.64
2019-04-27T20:02:14.443Z,99768.67
2019-04-27T20:05:01.090Z,99768.08
2019-04-27T20:07:48.249Z,99772.27
2019-04-27T20:10:37.815Z,99772.27
2019-04-27T20:16:12.291Z,99783.53
2019-04-27T20:21:31.852Z,99780.13
2019-04-27T20:23:59.539Z,99787.52
2019-04-27T20:26:47.561Z,99791.52
2019-04-27T20:29:15.186Z,99791.52
2019-04-27T20:31:42.822Z,99782.88
2019-04-27T20:34:30.961Z,99782.88
2019-04-27T20:36:58.618Z,99783.70
2019-04-27T20:42:31.709Z,99779.86
2019-04-27T20:47:52.729Z,99775.19
2019-04-27T20:50:41.230Z,99775.19
2019-04-27T20:56:19.091Z,99783.16
2019-04-27T20:58:46.744Z,99783.16
2019-04-27T21:01:34.255Z,99784.49
2019-04-27T21:07:08.677Z,99781.97
2019-04-27T21:09:55.077Z,99785.25
2019-04-27T21:12:41.748Z,99791.34
2019-04-27T21:15:11.275Z,99789.32
2019-04-27T21:17:57.566Z,99790.41
2019-04-27T21:20:43.957Z,99790.41
2019-04-27T21:23:31.210Z,99787.52
2019-04-27T21:28:54.320Z,99790.54
2019-04-27T21:31:42.634Z,99796.34
2019-04-27T21:34:41.457Z,99796.34
2019-04-27T21:36:58.464Z,99802.87
2019-04-27T21:40:02.036Z,99804.20
2019-04-27T21:42:32.951Z,99799.83
2019-04-27T21:45:21.585Z,99799.83
2019-04-27T21:48:07.365Z,99803.94
2019-04-27T21:50:53.776Z,99803.94
2019-04-27T21:53:41.170Z,99801.05
2019-04-27T21:56:13.414Z,99803.59
2019-04-27T21:58:42.054Z,99807.58
2019-04-27T22:01:29.141Z,99807.58
2019-04-27T22:03:56.995Z,99809.73
2019-04-27T22:09:17.394Z,99810.96
2019-04-27T22:11:45.163Z,99810.96
2019-04-27T22:14:31.597Z,99813.98
2019-04-27T22:20:06.074Z,99826.64
2019-04-27T22:25:31.771Z,99821.83
2019-04-27T22:28:18.193Z,99824.38
2019-04-27T22:31:04.569Z,99824.38
2019-04-27T22:33:54.396Z,99832.21
2019-04-27T22:36:39.587Z,99832.21
2019-04-27T22:39:26.029Z,99832.34
2019-04-27T22:45:06.756Z,99836.32
2019-04-27T22:47:53.157Z,99839.44
2019-04-27T22:53:20.359Z,99842.09
2019-04-27T22:56:06.824Z,99848.00
2019-04-27T22:59:00.510Z,99843.66
2019-04-27T23:04:25.304Z,99842.80
2019-04-27T23:09:44.396Z,99847.27
2019-04-27T23:15:19.217Z,99844.12
2019-04-27T23:21:03.676Z,99844.62
2019-04-27T23:23:31.334Z,99844.62
2019-04-27T23:26:18.156Z,99847.27
2019-04-27T23:28:46.826Z,99843.76
2019-04-27T23:31:33.586Z,99842.43
2019-04-27T23:36:37.149Z,99836.76
2019-04-27T23:44:58.081Z,99841.10
2019-04-27T23:47:44.509Z,99845.81
2019-04-27T23:50:12.244Z,99845.81
2019-04-27T23:52:58.658Z,99840.50
2019-04-27T23:58:21.546Z,99837.98
